createdAt,value
2023-03-04T00:01:02.854Z,12.27
2023-03-04T00:03:31.744Z,11.48
2023-03-04T00:06:00.119Z,12.00
2023-03-04T00:08:28.436Z,11.07
2023-03-04T00:10:56.879Z,11.15
2023-03-04T00:13:25.511Z,10.50
2023-03-04T00:15:53.968Z,11.95
2023-03-04T00:18:23.734Z,11.25
2023-03-04T00:20:52.430Z,11.43
2023-03-04T00:23:20.732Z,11.07
2023-03-04T00:25:49.250Z,10.93
2023-03-04T00:28:17.648Z,11.38
2023-03-04T00:30:45.985Z,10.20
2023-03-04T00:33:15.143Z,11.40
2023-03-04T00:35:45.677Z,9.80
2023-03-04T00:38:14.086Z,11.50
2023-03-04T00:40:42.364Z,10.75
2023-03-04T00:43:10.766Z,10.05
2023-03-04T00:45:39.331Z,10.07
2023-03-04T00:48:07.830Z,11.00
2023-03-04T00:50:36.233Z,10.80
2023-03-04T00:53:06.235Z,10.57
2023-03-04T00:55:34.698Z,10.57
2023-03-04T00:58:02.995Z,11.02
2023-03-04T01:00:31.700Z,10.95
2023-03-04T01:03:00.117Z,11.30
2023-03-04T01:05:32.245Z,10.77
2023-03-04T01:08:00.572Z,10.57
2023-03-04T01:10:30.319Z,10.15
2023-03-04T01:12:58.825Z,11.20
2023-03-04T01:15:27.435Z,11.38
2023-03-04T01:17:56.128Z,11.40
2023-03-04T01:20:24.403Z,11.45
2023-03-04T01:22:52.705Z,10.80
2023-03-04T01:25:21.192Z,11.63
2023-03-04T01:27:51.036Z,12.45
2023-03-04T01:30:19.999Z,11.10
2023-03-04T01:32:48.267Z,11.65
2023-03-04T01:35:16.877Z,12.70
2023-03-04T01:37:45.159Z,12.18
2023-03-04T01:40:15.410Z,11.13
2023-03-04T01:42:45.360Z,11.85
2023-03-04T01:45:18.358Z,12.23
2023-03-04T01:47:49.609Z,12.70
2023-03-04T01:50:22.540Z,12.10
2023-03-04T01:52:50.971Z,11.95
2023-03-04T01:55:21.564Z,11.80
2023-03-04T01:57:51.293Z,11.55
2023-03-04T02:00:31.010Z,11.73
2023-03-04T02:03:02.837Z,13.18
2023-03-04T02:05:32.248Z,11.65
2023-03-04T02:08:02.003Z,11.60
2023-03-04T02:10:30.679Z,12.68
2023-03-04T02:12:59.912Z,11.70
2023-03-04T02:15:30.514Z,11.48
2023-03-04T02:17:59.011Z,10.98
2023-03-04T02:20:43.753Z,11.45
2023-03-04T02:23:19.043Z,11.82
2023-03-04T02:25:50.852Z,11.13
2023-03-04T02:28:20.852Z,11.18
2023-03-04T02:30:49.234Z,12.38
2023-03-04T02:33:20.087Z,11.68
2023-03-04T02:35:48.577Z,10.95
2023-03-04T02:38:16.915Z,11.82
2023-03-04T02:40:48.623Z,10.88
2023-03-04T02:43:17.476Z,11.60
2023-03-04T02:45:49.532Z,11.95
2023-03-04T02:48:20.473Z,11.38
2023-03-04T02:50:51.393Z,10.75
2023-03-04T02:53:20.871Z,11.93
2023-03-04T02:55:49.667Z,11.07
2023-03-04T02:58:18.628Z,11.48
2023-03-04T03:00:48.746Z,11.38
2023-03-04T03:03:17.470Z,11.68
2023-03-04T03:05:46.125Z,11.18
2023-03-04T03:08:14.510Z,10.90
2023-03-04T03:10:42.919Z,10.88
2023-03-04T03:13:11.231Z,11.85
2023-03-04T03:15:42.514Z,11.23
2023-03-04T03:18:12.927Z,13.00
2023-03-04T03:20:42.220Z,10.80
2023-03-04T03:23:10.612Z,11.55
2023-03-04T03:25:39.089Z,11.73
2023-03-04T03:28:07.736Z,12.07
2023-03-04T03:30:36.052Z,12.07
2023-03-04T03:33:04.453Z,11.00
2023-03-04T03:35:34.410Z,12.93
2023-03-04T03:38:02.817Z,13.50
2023-03-04T03:40:31.128Z,12.25
2023-03-04T03:42:59.466Z,11.15
2023-03-04T03:45:27.764Z,10.95
2023-03-04T03:47:56.023Z,12.10
2023-03-04T03:50:24.397Z,11.63
2023-03-04T03:52:54.157Z,10.93
2023-03-04T03:55:22.532Z,11.80
2023-03-04T03:57:51.044Z,11.65
2023-03-04T04:00:20.448Z,12.32
2023-03-04T04:02:49.148Z,10.90
2023-03-04T04:05:18.022Z,10.95
2023-03-04T04:07:46.281Z,11.20
2023-03-04T04:10:16.021Z,10.65
2023-03-04T04:12:44.412Z,10.63
2023-03-04T04:15:13.583Z,10.52
2023-03-04T04:17:41.895Z,11.65
2023-03-04T04:20:11.551Z,11.13
2023-03-04T04:22:39.895Z,10.52
2023-03-04T04:25:10.855Z,10.68
2023-03-04T04:27:40.744Z,9.93
2023-03-04T04:30:10.092Z,10.30
2023-03-04T04:32:38.573Z,10.00
2023-03-04T04:35:08.202Z,10.38
2023-03-04T04:37:36.486Z,9.88
2023-03-04T04:40:05.190Z,9.88
2023-03-04T04:42:33.598Z,9.27
2023-03-04T04:45:03.527Z,10.23
2023-03-04T04:47:31.856Z,9.43
2023-03-04T04:50:00.182Z,8.52
2023-03-04T04:52:28.472Z,9.10
2023-03-04T04:54:56.849Z,8.23
2023-03-04T04:57:25.466Z,8.25
2023-03-04T04:59:54.433Z,7.90
2023-03-04T05:02:24.229Z,8.38
2023-03-04T05:04:52.615Z,7.90
2023-03-04T05:07:21.377Z,7.22
2023-03-04T05:09:49.747Z,7.35
2023-03-04T05:12:18.072Z,8.38
2023-03-04T05:14:46.360Z,7.75
2023-03-04T05:17:14.670Z,7.45
2023-03-04T05:19:44.471Z,8.77
2023-03-04T05:22:12.912Z,7.78
2023-03-04T05:24:41.274Z,7.60
2023-03-04T05:27:09.698Z,7.90
2023-03-04T05:29:38.029Z,7.28
2023-03-04T05:32:06.802Z,7.57
2023-03-04T05:34:35.221Z,7.70
2023-03-04T05:37:05.073Z,7.75
2023-03-04T05:39:33.391Z,7.22
2023-03-04T05:42:01.734Z,7.78
2023-03-04T05:44:30.274Z,6.88
2023-03-04T05:46:58.658Z,6.30
2023-03-04T05:49:27.083Z,6.43
2023-03-04T05:51:55.538Z,6.88
2023-03-04T05:54:25.332Z,7.00
2023-03-04T05:56:54.881Z,7.20
2023-03-04T05:59:23.740Z,7.03
2023-03-04T06:01:52.098Z,6.88
2023-03-04T06:04:20.797Z,6.80
2023-03-04T06:06:49.665Z,6.82
2023-03-04T06:09:18.118Z,6.35
2023-03-04T06:11:48.015Z,6.45
2023-03-04T06:14:16.763Z,7.50
2023-03-04T06:16:45.208Z,7.65
2023-03-04T06:19:13.657Z,7.63
2023-03-04T06:21:44.888Z,6.93
2023-03-04T06:24:13.215Z,7.63
2023-03-04T06:26:41.791Z,6.72
2023-03-04T06:29:11.853Z,6.22
2023-03-04T06:31:42.007Z,6.55
2023-03-04T06:34:10.813Z,6.95
2023-03-04T06:36:39.420Z,6.97
2023-03-04T06:39:08.719Z,7.47
2023-03-04T06:41:37.348Z,6.97
2023-03-04T06:44:06.124Z,6.65
2023-03-04T06:46:37.381Z,6.35
2023-03-04T06:49:05.769Z,6.90
2023-03-04T06:51:34.086Z,5.93
2023-03-04T06:54:02.481Z,6.47
2023-03-04T06:56:30.836Z,7.05
2023-03-04T06:58:59.213Z,6.57
2023-03-04T07:01:29.454Z,6.63
2023-03-04T07:03:59.863Z,5.93
2023-03-04T07:06:29.502Z,5.57
2023-03-04T07:08:58.709Z,5.38
2023-03-04T07:11:27.458Z,5.63
2023-03-04T07:13:55.848Z,5.60
2023-03-04T07:16:25.163Z,7.05
2023-03-04T07:18:53.460Z,6.35
2023-03-04T07:21:23.211Z,5.18
2023-03-04T07:23:52.041Z,5.68
2023-03-04T07:26:20.513Z,5.90
2023-03-04T07:28:49.452Z,4.88
2023-03-04T07:31:23.404Z,5.40
2023-03-04T07:33:51.922Z,5.10
2023-03-04T07:36:21.053Z,5.30
2023-03-04T07:38:52.308Z,5.18
2023-03-04T07:41:20.644Z,4.90
2023-03-04T07:43:49.216Z,4.60
2023-03-04T07:46:18.264Z,6.68
2023-03-04T07:48:46.972Z,5.38
2023-03-04T07:51:18.206Z,5.07
2023-03-04T07:53:49.718Z,4.80
2023-03-04T07:56:21.676Z,5.07
2023-03-04T07:58:52.105Z,5.60
2023-03-04T08:01:22.333Z,4.43
2023-03-04T08:03:50.984Z,4.30
2023-03-04T08:06:21.254Z,4.53
2023-03-04T08:08:50.885Z,4.00
2023-03-04T08:11:22.521Z,4.53
2023-03-04T08:13:51.341Z,4.13
2023-03-04T08:16:20.494Z,4.30
2023-03-04T08:18:53.072Z,4.30
2023-03-04T08:21:22.535Z,4.32
2023-03-04T08:23:52.198Z,3.85
2023-03-04T08:26:25.792Z,3.80
2023-03-04T08:28:54.896Z,4.47
2023-03-04T08:31:24.359Z,4.55
2023-03-04T08:33:53.111Z,4.07
2023-03-04T08:36:22.013Z,3.80
2023-03-04T08:38:50.723Z,4.38
2023-03-04T08:41:19.126Z,3.88
2023-03-04T08:43:48.809Z,4.72
2023-03-04T08:46:17.139Z,4.00
2023-03-04T08:48:45.482Z,3.47
2023-03-04T08:51:17.132Z,4.00
2023-03-04T08:53:46.293Z,4.03
2023-03-04T08:56:15.018Z,4.10
2023-03-04T08:58:43.592Z,4.00
2023-03-04T09:01:15.210Z,4.00
2023-03-04T09:03:44.602Z,3.10
2023-03-04T09:06:16.693Z,3.78
2023-03-04T09:08:45.524Z,3.78
2023-03-04T09:11:14.869Z,3.97
2023-03-04T09:13:43.293Z,3.45
2023-03-04T09:16:14.595Z,4.88
2023-03-04T09:18:43.644Z,3.85
2023-03-04T09:21:11.999Z,3.92
2023-03-04T09:23:41.180Z,3.75
2023-03-04T09:26:18.764Z,3.70
2023-03-04T09:28:47.080Z,3.75
2023-03-04T09:31:16.949Z,2.78
2023-03-04T09:33:45.478Z,3.15
2023-03-04T09:36:16.013Z,3.05
2023-03-04T09:38:44.816Z,2.70
2023-03-04T09:41:18.522Z,2.70
